Latest Weather Observations for Norfolk Island

IDN60801

Issued at 1:33 pm EST Wednesday 22 April 2015 (issued every 30 minutes, with the page automatically refreshed every 10 minutes)

About weather observations | Map of weather stations | Latest weather observations for NSW | Other Formats
Station Details ID: 200288 Name: NORFOLK ISLAND AERO Lat: -29.04 Lon: 167.94 Height: 111.73 m
Data from the previous 72 hours. | See also: Recent months at Norfolk Island
Date/Time
EST
Temp
°C
App
Temp
°C
Dew
Point
Rel
Hum
%
Delta-T
°C
Wind Press
QNH
hPa
Press
MSL
hPa
Rain
since 9 am
mm
Dir
 
Spd
km/h
Gust
km/h
Spd
kts
Gust
kts
22/01:00pm 21.9 19.7 16.8 73 3.1 E 24 33 13 18 1020.4 - 0.0
22/12:30pm 22.1 20.0 18.1 78 2.5 E 26 35 14 19 1020.6 - 0.0
22/12:00pm 22.9 20.7 17.9 73 3.1 E 26 35 14 19 1020.9 - 0.0
22/11:30am 22.3 19.6 17.6 75 2.9 ENE 28 43 15 23 1021.2 - 0.0
22/11:00am 22.3 19.2 17.4 74 3.0 ENE 30 39 16 21 1021.3 - 0.0
22/10:30am 21.9 18.3 17.2 74 2.9 ENE 32 44 17 24 1021.2 1020.9 0.0
22/10:00am 22.5 19.0 17.5 73 3.1 ENE 32 43 17 23 1021.2 - 0.0
22/09:30am 23.0 20.0 17.7 72 3.3 E 30 41 16 22 1021.6 - 0.0
22/09:00am 22.8 19.8 16.8 69 3.7 E 28 37 15 20 1021.9 - 0.0
22/08:30am 22.7 20.7 16.5 68 3.8 E 22 32 12 17 1022.0 - 0.0
22/08:00am 21.9 19.4 16.1 69 3.5 ENE 24 33 13 18 1021.9 - 0.0
22/07:30am 21.6 19.3 15.6 68 3.6 ENE 22 33 12 18 1021.9 1021.6 0.6
22/07:00am 21.3 18.4 15.0 67 3.7 ENE 24 33 13 18 1021.9 - 0.6
22/06:30am 21.0 18.1 15.1 69 3.5 E 24 33 13 18 1021.4 - 0.6
22/06:00am 20.4 18.0 15.5 73 2.9 ENE 22 32 12 17 1021.2 - 0.6
22/05:30am 20.2 17.9 15.7 75 2.7 ENE 22 32 12 17 1021.0 - 0.6
22/05:00am 20.0 17.2 15.3 74 2.8 E 24 33 13 18 1020.6 - 0.6
22/04:30am 20.0 17.6 15.4 75 2.7 ENE 22 33 12 18 1020.5 1020.2 0.6
22/04:00am 20.1 16.7 14.8 71 3.1 ENE 26 35 14 19 1020.4 - 0.6
22/03:30am 20.0 17.2 15.4 75 2.7 ENE 24 35 13 19 1020.3 - 0.6
22/03:00am 19.8 16.6 15.4 76 2.6 ENE 26 33 14 18 1020.3 - 0.6
22/02:30am 19.9 16.8 15.5 76 2.6 ENE 26 35 14 19 1020.2 - 0.6
22/02:00am 19.9 17.3 15.9 78 2.4 E 24 33 13 18 1020.5 - 0.6
22/01:30am 20.2 17.5 15.5 74 2.8 ENE 24 32 13 17 1020.6 1020.3 0.6
22/01:00am 20.2 16.8 15.7 75 2.7 ENE 28 35 15 19 1021.1 - 0.6
22/12:30am 20.0 17.1 16.2 79 2.3 E 26 35 14 19 1021.3 - 0.6
22/12:00am 20.1 16.7 15.9 77 2.5 ENE 28 35 15 19 1021.7 - 0.6
 
Date/Time
EST
Temp
°C
App
Temp
°C
Dew
Point
Rel
Hum
%
Delta-T
°C
Wind Press
QNH
hPa
Press
MSL
hPa
Rain
since 9 am
mm
Dir
 
Spd
km/h
Gust
km/h
Spd
kts
Gust
kts
21/11:30pm 20.0 17.3 16.5 80 2.1 ENE 26 33 14 18 1021.8 - 0.6
21/11:00pm 19.8 17.1 16.7 82 1.9 E 26 33 14 18 1022.0 - 0.6
21/10:35pm 19.9 18.0 16.8 82 1.9 ENE 22 37 12 20 1022.1 - 0.6
21/10:30pm 19.6 18.3 16.8 84 1.7 NE 19 28 10 15 1022.2 1021.9 0.6
21/10:01pm 19.0 16.4 16.8 87 1.3 ENE 26 35 14 19 1022.5 - 0.2
21/10:00pm 19.1 16.5 16.8 86 1.4 ENE 26 35 14 19 1022.5 - 0.0
21/09:47pm 19.1 15.4 16.1 83 1.8 ENE 30 43 16 23 1022.5 - 0.0
21/09:30pm 20.0 18.1 16.7 81 2.0 ENE 22 33 12 18 1022.7 - 0.0
21/09:00pm 20.4 17.2 16.4 78 2.4 ENE 28 37 15 20 1022.9 - 0.0
21/08:30pm 20.5 18.4 17.1 81 2.1 E 24 35 13 19 1022.9 - 0.0
21/08:00pm 20.4 17.7 16.6 79 2.3 E 26 35 14 19 1022.8 - 0.0
21/07:30pm 20.6 18.1 17.0 80 2.2 E 26 35 14 19 1022.7 1022.4 0.0
21/07:00pm 20.5 18.1 16.5 78 2.4 E 24 37 13 20 1022.6 - 0.0
21/06:30pm 20.6 18.4 16.8 79 2.3 E 24 32 13 17 1022.5 - 0.0
21/06:00pm 20.5 18.6 16.7 79 2.3 E 22 30 12 16 1022.5 - 0.0
21/05:30pm 20.6 18.7 16.6 78 2.4 E 22 32 12 17 1022.5 - 0.0
21/05:00pm 20.7 18.0 16.6 77 2.5 E 26 37 14 20 1022.0 - 0.0
21/04:30pm 20.8 19.0 16.9 78 2.4 E 22 32 12 17 1021.6 1021.3 0.0
21/04:00pm 20.8 18.6 16.9 78 2.4 E 24 32 13 17 1021.3 - 0.0
21/03:30pm 21.1 18.6 17.0 77 2.5 E 26 37 14 20 1021.0 - 0.0
21/03:00pm 20.9 18.9 17.5 81 2.1 E 24 35 13 19 1021.0 - 0.0
21/02:30pm 20.3 20.1 18.5 89 1.1 E 17 20 9 11 1021.1 - 0.0
21/02:00pm 21.5 19.0 17.1 76 2.7 E 26 35 14 19 1021.3 - 0.0
21/01:30pm 22.5 21.0 17.7 74 3.0 E 22 32 12 17 1021.3 1021.0 0.0
21/01:00pm 21.7 20.3 16.6 73 3.1 E 19 30 10 16 1021.4 - 0.0
21/12:30pm 21.6 18.3 17.0 75 2.8 E 30 41 16 22 1021.4 - 0.0
21/12:00pm 22.0 18.9 17.6 76 2.7 ENE 30 41 16 22 1021.5 - 0.0
21/11:30am 22.8 19.1 16.9 69 3.6 ENE 32 39 17 21 1021.8 - 0.0
21/11:00am 22.0 18.8 16.4 70 3.4 ENE 28 35 15 19 1022.0 - 0.0
21/10:48am 22.3 19.3 16.9 71 3.3 ENE 28 46 15 25 1022.1 - 0.0
21/10:30am 22.8 19.5 17.1 70 3.5 E 30 37 16 20 1022.2 1021.9 0.0
21/10:00am 22.2 19.4 17.2 73 3.1 ENE 28 41 15 22 1022.7 - 0.0
21/09:30am 22.2 19.7 17.2 73 3.1 E 26 37 14 20 1023.1 - 0.0
21/09:00am 22.2 18.3 17.0 72 3.2 E 33 41 18 22 1022.8 - 0.0
21/08:30am 22.9 20.7 16.9 69 3.7 E 24 35 13 19 1022.8 - 0.0
21/08:00am 22.4 19.6 16.3 68 3.7 E 26 41 14 22 1022.8 - 0.0
21/07:30am 22.1 18.8 16.1 69 3.6 E 28 37 15 20 1022.8 1022.5 0.0
21/07:00am 21.5 18.5 15.8 70 3.4 E 26 33 14 18 1022.9 - 0.0
21/06:30am 20.8 18.5 15.6 72 3.1 E 22 30 12 16 1022.7 - 0.0
21/06:00am 20.8 19.6 16.0 74 2.9 E 17 28 9 15 1022.6 - 0.0
21/05:30am 19.7 18.4 15.7 78 2.4 E 17 26 9 14 1022.6 - 0.0
21/05:00am 19.2 17.9 15.7 80 2.1 E 17 24 9 13 1022.5 - 0.0
21/04:30am 19.6 18.4 15.0 75 2.7 ENE 15 20 8 11 1022.5 1022.2 0.0
21/04:00am 19.4 17.7 14.8 75 2.7 ENE 17 26 9 14 1022.3 - 0.0
21/03:30am 19.6 17.7 14.1 70 3.2 ENE 17 26 9 14 1022.3 - 0.0
21/03:00am 19.6 17.4 13.3 67 3.6 ENE 17 22 9 12 1022.0 - 0.0
21/02:30am 19.3 17.0 14.1 72 3.0 E 19 28 10 15 1022.1 - 0.0
21/02:00am 19.3 17.6 14.7 74 2.7 ENE 17 22 9 12 1022.1 - 0.0
21/01:30am 19.3 17.3 13.9 71 3.1 E 17 22 9 12 1022.2 1021.9 0.0
21/01:00am 19.7 17.0 13.6 68 3.5 E 20 32 11 17 1022.3 - 0.0
21/12:30am 20.1 17.0 14.4 69 3.3 E 24 32 13 17 1022.4 - 0.0
21/12:00am 20.0 17.0 15.8 77 2.5 ENE 26 35 14 19 1022.4 - 0.0
 
Date/Time
EST
Temp
°C
App
Temp
°C
Dew
Point
Rel
Hum
%
Delta-T
°C
Wind Press
QNH
hPa
Press
MSL
hPa
Rain
since 9 am
mm
Dir
 
Spd
km/h
Gust
km/h
Spd
kts
Gust
kts
20/11:30pm 19.5 17.5 15.6 78 2.3 ENE 20 32 11 17 1022.5 - 0.0
20/11:00pm 19.5 18.0 15.4 77 2.4 E 17 26 9 14 1022.5 - 0.0
20/10:30pm 19.7 17.2 15.1 75 2.7 E 22 30 12 16 1022.6 1022.3 0.0
20/10:00pm 19.2 18.1 15.3 78 2.3 E 15 22 8 12 1022.8 - 0.0
20/09:30pm 19.4 17.8 15.1 76 2.5 E 17 22 9 12 1022.9 - 0.0
20/09:00pm 20.1 18.6 15.4 74 2.8 E 17 24 9 13 1022.9 - 0.0
20/08:30pm 19.6 17.8 14.4 72 3.0 E 17 26 9 14 1023.1 - 0.0
20/08:00pm 19.3 17.3 13.9 71 3.1 E 17 26 9 14 1023.1 - 0.0
20/07:30pm 19.0 16.7 13.0 68 3.4 E 17 24 9 13 1022.8 1022.5 0.0
20/07:00pm 19.2 16.4 12.6 65 3.7 E 19 26 10 14 1022.7 - 0.0
20/06:30pm 20.0 17.2 13.1 64 3.9 E 20 28 11 15 1022.6 - 0.0
20/06:00pm 19.8 18.2 13.9 69 3.4 E 15 22 8 12 1022.4 - 0.0
20/05:30pm 19.0 17.9 13.0 68 3.4 E 11 17 6 9 1022.4 - 0.0
20/05:00pm 18.9 16.9 12.7 67 3.5 E 15 20 8 11 1022.1 - 0.0
20/04:30pm 19.6 18.0 12.7 64 3.9 E 13 19 7 10 1021.8 1021.5 0.0
20/04:00pm 20.1 17.6 12.3 61 4.4 E 17 22 9 12 1021.9 - 0.0
20/03:30pm 20.4 17.4 12.0 58 4.7 E 19 26 10 14 1021.8 - 0.0
20/03:00pm 20.4 17.4 12.0 58 4.7 E 19 28 10 15 1021.5 - 0.0
20/02:30pm 21.2 17.7 12.1 56 5.1 E 22 32 12 17 1021.3 - 0.0
20/02:00pm 21.3 18.3 12.5 57 5.0 E 20 33 11 18 1021.4 - 0.0
20/01:30pm 22.1 18.7 12.6 55 5.4 ENE 22 30 12 16 1021.4 1021.1 0.0
20/01:00pm 21.8 18.4 12.5 55 5.3 E 22 30 12 16 1021.8 - 0.0
20/12:30pm 21.5 17.4 12.7 57 5.0 ENE 26 35 14 19 1021.7 - 0.0
20/12:00pm 22.1 19.7 12.6 55 5.4 ENE 17 26 9 14 1022.2 - 0.0
20/11:30am 21.7 19.1 11.9 53 5.5 ESE 17 26 9 14 1022.3 - 0.0
20/11:00am 21.6 18.1 12.2 55 5.3 E 22 28 12 15 1022.7 - 0.0
20/10:30am 22.0 18.9 12.3 54 5.5 E 20 28 11 15 1023.1 1022.7 0.0
20/10:00am 21.5 18.3 11.9 54 5.4 E 20 28 11 15 1023.5 - 0.0
20/09:30am 21.8 18.4 11.1 50 5.9 ENE 20 32 11 17 1023.9 - 0.0
20/09:00am 21.3 17.9 11.2 52 5.6 E 20 32 11 17 1024.2 - 0.0
20/08:30am 21.3 18.2 11.6 54 5.4 E 19 24 10 13 1024.4 - 0.0
20/08:00am 20.5 17.7 11.5 56 5.0 ESE 17 24 9 13 1024.4 - 0.0
20/07:30am 20.0 17.7 11.7 59 4.6 ESE 15 22 8 12 1024.3 1023.9 0.0
20/07:00am 20.2 17.1 11.7 58 4.7 E 19 24 10 13 1024.3 - 0.0
20/06:30am 18.9 17.3 11.4 61 4.1 ESE 11 13 6 7 1024.1 - 0.0
20/06:00am 17.6 15.8 10.9 65 3.6 E 11 15 6 8 1023.8 - 0.0
20/05:30am 17.5 16.0 11.8 69 3.1 E 11 15 6 8 1023.6 - 0.0
20/05:00am 16.7 15.6 11.9 73 2.6 E 9 17 5 9 1023.3 - 0.0
20/04:30am 17.4 16.0 10.9 65 3.5 ENE 9 11 5 6 1023.1 1022.7 0.0
20/04:00am 16.5 15.6 11.5 72 2.7 E 7 9 4 5 1022.9 - 0.0
20/03:30am 16.7 15.5 11.5 71 2.8 ENE 9 11 5 6 1022.6 - 0.0
20/03:00am 16.7 15.8 11.5 71 2.8 E 7 11 4 6 1022.5 - 0.0
20/02:30am 16.6 15.3 11.2 70 2.9 ENE 9 11 5 6 1022.5 - 0.0
20/02:00am 17.0 16.1 11.5 70 3.0 ENE 7 11 4 6 1022.5 - 0.0
20/01:30am 17.2 16.5 11.9 71 2.9 ENE 7 9 4 5 1022.6 1022.3 0.0
20/01:00am 17.4 15.9 11.9 70 3.0 E 11 15 6 8 1022.7 - 0.0
20/12:30am 18.0 16.5 11.8 67 3.4 E 11 15 6 8 1022.8 - 0.0
20/12:00am 17.7 16.5 11.7 68 3.3 ESE 9 13 5 7 1022.9 - 0.0
 
Date/Time
EST
Temp
°C
App
Temp
°C
Dew
Point
Rel
Hum
%
Delta-T
°C
Wind Press
QNH
hPa
Press
MSL
hPa
Rain
since 9 am
mm
Dir
 
Spd
km/h
Gust
km/h
Spd
kts
Gust
kts
19/11:30pm 17.8 16.7 11.8 68 3.3 ESE 9 13 5 7 1023.3 - 0.0
19/11:00pm 17.8 17.1 12.0 69 3.2 E 7 9 4 5 1023.7 - 0.0
19/10:30pm 17.9 17.4 12.1 69 3.2 ESE 6 7 3 4 1024.1 1023.7 0.0
19/10:00pm 18.1 17.4 11.9 67 3.4 ESE 7 11 4 6 1023.9 - 0.0
19/09:30pm 17.8 16.8 12.2 70 3.1 E 9 11 5 6 1023.8 - 0.0
19/09:00pm 18.1 17.0 12.1 68 3.3 E 9 13 5 7 1024.0 - 0.0
19/08:30pm 18.4 17.2 12.7 69 3.2 E 11 17 6 9 1024.3 - 0.0
19/08:00pm 19.0 18.2 13.0 68 3.4 ESE 9 15 5 8 1024.1 - 0.0
19/07:30pm 19.1 18.4 13.3 69 3.3 E 9 13 5 7 1024.0 1023.6 0.0
19/07:00pm 19.8 18.4 13.3 66 3.7 ESE 13 17 7 9 1023.9 - 0.0
19/06:30pm 19.5 18.8 13.2 67 3.6 E 9 13 5 7 1023.7 - 0.0
19/06:00pm 19.3 19.2 13.9 71 3.1 E 7 9 4 5 1023.5 - 0.0
19/05:30pm 19.5 19.3 13.6 68 3.4 E 7 11 4 6 1023.5 - 0.0
19/05:00pm 19.3 18.7 13.5 69 3.3 E 9 11 5 6 1023.1 - 0.0
19/04:30pm 19.4 18.5 13.6 69 3.3 E 11 13 6 7 1022.8 1022.5 0.0
19/04:00pm 20.4 19.4 13.4 64 4.0 ESE 11 17 6 9 1022.8 - 0.0
19/03:30pm 21.1 19.4 13.7 62 4.3 E 15 22 8 12 1022.7 - 0.0
19/03:00pm 21.1 18.6 13.5 62 4.4 E 19 28 10 15 1022.5 - 0.0
19/02:30pm 22.1 20.7 14.4 61 4.5 ESE 15 22 8 12 1022.2 - 0.0
19/02:00pm 22.2 20.3 14.2 60 4.7 SE 17 26 9 14 1021.9 - 0.0
19/01:30pm 22.4 20.3 13.6 57 5.1 SE 17 24 9 13 1022.1 1021.8 0.0
19/01:00pm 22.5 20.7 14.5 60 4.7 ESE 17 26 9 14 1022.3 - 0.0
19/12:30pm 21.9 19.6 14.2 61 4.5 SE 19 26 10 14 1022.6 - 0.0

Other Formats:

Comma delimited format used in spreadsheet applications
http://www.bom.gov.au/fwo/IDN60801/IDN60801.94996.axf

JavaScript Object Notation format (JSON) in row-major order
http://www.bom.gov.au/fwo/IDN60801/IDN60801.94996.json